Terminal Aerodrome Forecast
Issued by NWS

Home | Current Version | Previous Version | Text Only | Print | Product List | Glossary On
Versions: 1 2 3 4 5 6 7 8 9 10 11 12 13 14 15 16 17
000
FTUS43 KIWX 292320
TAFSBN
TAF
KSBN 292320Z 3000/3024 36007KT P6SM BKN020
     FM300400 36006KT P6SM BKN035
     FM301200 09013G20KT P6SM OVC060
     FM301600 10013G20KT P6SM -RA BKN030
     FM301800 11013G20KT 5SM -RA BR OVC015
     FM302100 10013G20KT 2SM -RA BR OVC008=

USA.gov is the U.S. government's official web portal to all federal, state and local government web resources and services.